sensor_id;sensor_type;location;lat;lon;timestamp;temperature;humidity
71879;DHT22;59755;43.834;4.364;2023-07-02T00:00:28;23.40;54.10
71879;DHT22;59755;43.834;4.364;2023-07-02T00:02:53;23.40;54.20
71879;DHT22;59755;43.834;4.364;2023-07-02T00:05:19;23.40;54.30
71879;DHT22;59755;43.834;4.364;2023-07-02T00:07:45;23.40;54.30
71879;DHT22;59755;43.834;4.364;2023-07-02T00:10:10;23.40;54.30
71879;DHT22;59755;43.834;4.364;2023-07-02T00:12:36;23.30;54.50
71879;DHT22;59755;43.834;4.364;2023-07-02T00:15:02;23.30;54.80
71879;DHT22;59755;43.834;4.364;2023-07-02T00:17:27;23.30;54.70
71879;DHT22;59755;43.834;4.364;2023-07-02T00:19:53;23.20;54.80
71879;DHT22;59755;43.834;4.364;2023-07-02T00:22:19;23.20;54.90
71879;DHT22;59755;43.834;4.364;2023-07-02T00:24:45;23.20;54.90
71879;DHT22;59755;43.834;4.364;2023-07-02T00:27:11;23.20;55.00
71879;DHT22;59755;43.834;4.364;2023-07-02T00:29:36;23.20;55.00
71879;DHT22;59755;43.834;4.364;2023-07-02T00:32:02;23.20;54.90
71879;DHT22;59755;43.834;4.364;2023-07-02T00:34:27;23.20;55.00
71879;DHT22;59755;43.834;4.364;2023-07-02T00:36:53;23.20;55.00
71879;DHT22;59755;43.834;4.364;2023-07-02T00:39:19;23.20;55.00
71879;DHT22;59755;43.834;4.364;2023-07-02T00:41:44;23.20;55.00
71879;DHT22;59755;43.834;4.364;2023-07-02T00:44:13;23.30;55.00
71879;DHT22;59755;43.834;4.364;2023-07-02T00:46:39;23.20;55.20
71879;DHT22;59755;43.834;4.364;2023-07-02T00:49:04;23.20;55.00
71879;DHT22;59755;43.834;4.364;2023-07-02T00:51:30;23.20;55.20
71879;DHT22;59755;43.834;4.364;2023-07-02T00:53:57;23.20;55.10
71879;DHT22;59755;43.834;4.364;2023-07-02T00:56:23;23.10;55.40
71879;DHT22;59755;43.834;4.364;2023-07-02T00:58:49;23.10;55.40
71879;DHT22;59755;43.834;4.364;2023-07-02T01:01:16;23.00;55.60
71879;DHT22;59755;43.834;4.364;2023-07-02T01:03:52;23.00;55.60
71879;DHT22;59755;43.834;4.364;2023-07-02T01:06:19;23.00;55.70
71879;DHT22;59755;43.834;4.364;2023-07-02T01:08:54;23.00;55.50
71879;DHT22;59755;43.834;4.364;2023-07-02T01:11:19;23.00;55.70
71879;DHT22;59755;43.834;4.364;2023-07-02T01:13:46;23.00;55.80
71879;DHT22;59755;43.834;4.364;2023-07-02T01:16:12;23.00;55.70
71879;DHT22;59755;43.834;4.364;2023-07-02T01:18:38;23.00;55.70
71879;DHT22;59755;43.834;4.364;2023-07-02T01:21:06;23.00;55.80
71879;DHT22;59755;43.834;4.364;2023-07-02T01:23:32;22.90;55.80
71879;DHT22;59755;43.834;4.364;2023-07-02T01:25:58;23.00;55.70
71879;DHT22;59755;43.834;4.364;2023-07-02T01:28:25;22.90;55.70
71879;DHT22;59755;43.834;4.364;2023-07-02T01:30:51;23.00;55.60
71879;DHT22;59755;43.834;4.364;2023-07-02T01:33:17;23.00;55.60
71879;DHT22;59755;43.834;4.364;2023-07-02T01:35:42;23.00;55.70
71879;DHT22;59755;43.834;4.364;2023-07-02T01:38:08;23.00;55.70
71879;DHT22;59755;43.834;4.364;2023-07-02T01:40:34;23.00;55.70
71879;DHT22;59755;43.834;4.364;2023-07-02T01:42:59;23.00;55.50
71879;DHT22;59755;43.834;4.364;2023-07-02T01:45:25;23.10;55.50
71879;DHT22;59755;43.834;4.364;2023-07-02T01:47:50;23.10;55.60
71879;DHT22;59755;43.834;4.364;2023-07-02T01:50:16;23.10;55.40
71879;DHT22;59755;43.834;4.364;2023-07-02T01:52:42;23.00;55.60
71879;DHT22;59755;43.834;4.364;2023-07-02T01:55:08;23.10;55.50
71879;DHT22;59755;43.834;4.364;2023-07-02T01:57:33;23.10;55.80
71879;DHT22;59755;43.834;4.364;2023-07-02T01:59:59;23.10;55.40
71879;DHT22;59755;43.834;4.364;2023-07-02T02:02:25;23.10;55.50
71879;DHT22;59755;43.834;4.364;2023-07-02T02:04:50;23.10;55.40
71879;DHT22;59755;43.834;4.364;2023-07-02T02:07:16;23.20;55.60
71879;DHT22;59755;43.834;4.364;2023-07-02T02:09:41;23.10;55.70
71879;DHT22;59755;43.834;4.364;2023-07-02T02:12:07;23.10;55.90
71879;DHT22;59755;43.834;4.364;2023-07-02T02:14:32;23.10;55.90
71879;DHT22;59755;43.834;4.364;2023-07-02T02:16:58;23.10;55.90
71879;DHT22;59755;43.834;4.364;2023-07-02T02:19:24;23.10;56.00
71879;DHT22;59755;43.834;4.364;2023-07-02T02:21:49;23.10;55.90
71879;DHT22;59755;43.834;4.364;2023-07-02T02:24:15;23.10;55.80
71879;DHT22;59755;43.834;4.364;2023-07-02T02:26:40;23.10;55.80
71879;DHT22;59755;43.834;4.364;2023-07-02T02:29:07;23.10;55.80
71879;DHT22;59755;43.834;4.364;2023-07-02T02:31:33;23.10;55.90
71879;DHT22;59755;43.834;4.364;2023-07-02T02:33:59;23.00;55.80
71879;DHT22;59755;43.834;4.364;2023-07-02T02:36:24;23.00;56.10
71879;DHT22;59755;43.834;4.364;2023-07-02T02:38:50;23.10;56.00
71879;DHT22;59755;43.834;4.364;2023-07-02T02:41:15;23.10;55.90
71879;DHT22;59755;43.834;4.364;2023-07-02T02:43:41;23.00;56.10
71879;DHT22;59755;43.834;4.364;2023-07-02T02:46:08;23.00;56.10
71879;DHT22;59755;43.834;4.364;2023-07-02T02:48:33;23.00;56.10
71879;DHT22;59755;43.834;4.364;2023-07-02T02:50:59;23.00;56.10
71879;DHT22;59755;43.834;4.364;2023-07-02T02:53:25;23.00;56.10
71879;DHT22;59755;43.834;4.364;2023-07-02T02:55:50;23.00;56.10
71879;DHT22;59755;43.834;4.364;2023-07-02T02:58:16;23.00;56.30
71879;DHT22;59755;43.834;4.364;2023-07-02T03:00:42;23.00;56.20
71879;DHT22;59755;43.834;4.364;2023-07-02T03:03:12;23.10;56.30
71879;DHT22;59755;43.834;4.364;2023-07-02T03:05:37;23.10;56.20
71879;DHT22;59755;43.834;4.364;2023-07-02T03:08:03;23.00;56.40
71879;DHT22;59755;43.834;4.364;2023-07-02T03:10:29;23.00;56.50
71879;DHT22;59755;43.834;4.364;2023-07-02T03:12:54;23.00;56.70
71879;DHT22;59755;43.834;4.364;2023-07-02T03:15:20;23.00;56.50
71879;DHT22;59755;43.834;4.364;2023-07-02T03:17:45;22.90;56.80
71879;DHT22;59755;43.834;4.364;2023-07-02T03:20:11;22.90;57.00
71879;DHT22;59755;43.834;4.364;2023-07-02T03:22:37;22.90;56.90
71879;DHT22;59755;43.834;4.364;2023-07-02T03:25:02;22.90;57.30
71879;DHT22;59755;43.834;4.364;2023-07-02T03:27:28;22.80;57.30
71879;DHT22;59755;43.834;4.364;2023-07-02T03:29:54;22.80;57.50
71879;DHT22;59755;43.834;4.364;2023-07-02T03:32:19;22.70;57.80
71879;DHT22;59755;43.834;4.364;2023-07-02T03:34:45;22.70;57.90
71879;DHT22;59755;43.834;4.364;2023-07-02T03:37:10;22.60;58.00
71879;DHT22;59755;43.834;4.364;2023-07-02T03:39:36;22.50;58.20
71879;DHT22;59755;43.834;4.364;2023-07-02T03:42:01;22.50;58.40
71879;DHT22;59755;43.834;4.364;2023-07-02T03:44:27;22.50;58.40
71879;DHT22;59755;43.834;4.364;2023-07-02T03:46:53;22.50;58.20
71879;DHT22;59755;43.834;4.364;2023-07-02T03:49:19;22.50;58.30
71879;DHT22;59755;43.834;4.364;2023-07-02T03:51:44;22.40;58.60
71879;DHT22;59755;43.834;4.364;2023-07-02T03:54:10;22.40;58.60
71879;DHT22;59755;43.834;4.364;2023-07-02T03:56:35;22.40;58.80
71879;DHT22;59755;43.834;4.364;2023-07-02T03:59:01;22.40;58.60
71879;DHT22;59755;43.834;4.364;2023-07-02T04:01:27;22.30;59.00
71879;DHT22;59755;43.834;4.364;2023-07-02T04:03:53;22.30;59.10
71879;DHT22;59755;43.834;4.364;2023-07-02T04:06:18;22.20;59.20
71879;DHT22;59755;43.834;4.364;2023-07-02T04:08:44;22.20;59.40
71879;DHT22;59755;43.834;4.364;2023-07-02T04:11:10;22.20;59.50
71879;DHT22;59755;43.834;4.364;2023-07-02T04:13:36;22.20;59.60
71879;DHT22;59755;43.834;4.364;2023-07-02T04:16:01;22.20;59.60
71879;DHT22;59755;43.834;4.364;2023-07-02T04:18:27;22.10;59.50
71879;DHT22;59755;43.834;4.364;2023-07-02T04:20:54;22.10;59.90
71879;DHT22;59755;43.834;4.364;2023-07-02T04:23:20;22.00;60.10
71879;DHT22;59755;43.834;4.364;2023-07-02T04:25:46;21.90;60.30
71879;DHT22;59755;43.834;4.364;2023-07-02T04:28:11;21.90;60.50
71879;DHT22;59755;43.834;4.364;2023-07-02T04:30:37;21.90;60.50
71879;DHT22;59755;43.834;4.364;2023-07-02T04:33:02;21.90;60.50
71879;DHT22;59755;43.834;4.364;2023-07-02T04:35:28;21.90;60.60
71879;DHT22;59755;43.834;4.364;2023-07-02T04:37:54;21.90;60.50
71879;DHT22;59755;43.834;4.364;2023-07-02T04:40:20;21.80;60.80
71879;DHT22;59755;43.834;4.364;2023-07-02T04:42:45;21.70;61.00
71879;DHT22;59755;43.834;4.364;2023-07-02T04:45:14;21.70;61.00
71879;DHT22;59755;43.834;4.364;2023-07-02T04:47:44;21.80;60.70
71879;DHT22;59755;43.834;4.364;2023-07-02T04:50:10;21.80;60.40
71879;DHT22;59755;43.834;4.364;2023-07-02T04:52:37;21.90;60.40
71879;DHT22;59755;43.834;4.364;2023-07-02T04:55:03;21.90;60.10
71879;DHT22;59755;43.834;4.364;2023-07-02T04:57:29;21.90;60.10
71879;DHT22;59755;43.834;4.364;2023-07-02T04:59:55;22.00;59.90
71879;DHT22;59755;43.834;4.364;2023-07-02T05:02:20;21.90;59.80
71879;DHT22;59755;43.834;4.364;2023-07-02T05:04:46;21.90;60.00
71879;DHT22;59755;43.834;4.364;2023-07-02T05:07:11;21.90;60.30
71879;DHT22;59755;43.834;4.364;2023-07-02T05:09:37;21.90;60.10
71879;DHT22;59755;43.834;4.364;2023-07-02T05:12:03;21.90;60.00
71879;DHT22;59755;43.834;4.364;2023-07-02T05:14:28;22.00;60.00
71879;DHT22;59755;43.834;4.364;2023-07-02T05:16:57;22.00;59.90
71879;DHT22;59755;43.834;4.364;2023-07-02T05:19:22;22.00;60.00
71879;DHT22;59755;43.834;4.364;2023-07-02T05:21:48;22.00;60.00
71879;DHT22;59755;43.834;4.364;2023-07-02T05:24:13;22.00;59.90
71879;DHT22;59755;43.834;4.364;2023-07-02T05:26:39;22.10;59.90
71879;DHT22;59755;43.834;4.364;2023-07-02T05:29:05;22.10;59.80
71879;DHT22;59755;43.834;4.364;2023-07-02T05:31:30;22.10;59.90
71879;DHT22;59755;43.834;4.364;2023-07-02T05:33:56;22.10;59.80
71879;DHT22;59755;43.834;4.364;2023-07-02T05:36:22;22.10;59.80
71879;DHT22;59755;43.834;4.364;2023-07-02T05:38:48;22.10;59.80
71879;DHT22;59755;43.834;4.364;2023-07-02T05:41:20;22.10;59.90
71879;DHT22;59755;43.834;4.364;2023-07-02T05:43:46;22.20;59.90
71879;DHT22;59755;43.834;4.364;2023-07-02T05:46:11;22.20;60.00
71879;DHT22;59755;43.834;4.364;2023-07-02T05:48:39;22.30;60.00
71879;DHT22;59755;43.834;4.364;2023-07-02T05:51:05;22.30;59.80
71879;DHT22;59755;43.834;4.364;2023-07-02T05:53:30;22.30;60.00
71879;DHT22;59755;43.834;4.364;2023-07-02T05:55:56;22.40;60.00
71879;DHT22;59755;43.834;4.364;2023-07-02T05:58:22;22.50;59.70
71879;DHT22;59755;43.834;4.364;2023-07-02T06:00:47;22.60;59.60
71879;DHT22;59755;43.834;4.364;2023-07-02T06:03:15;22.70;59.00
71879;DHT22;59755;43.834;4.364;2023-07-02T06:05:47;22.70;58.50
71879;DHT22;59755;43.834;4.364;2023-07-02T06:08:15;22.80;58.50
71879;DHT22;59755;43.834;4.364;2023-07-02T06:10:41;22.80;58.80
71879;DHT22;59755;43.834;4.364;2023-07-02T06:13:06;22.90;58.20
71879;DHT22;59755;43.834;4.364;2023-07-02T06:15:32;22.90;58.30
71879;DHT22;59755;43.834;4.364;2023-07-02T06:17:57;22.90;58.00
71879;DHT22;59755;43.834;4.364;2023-07-02T06:20:23;23.00;57.90
71879;DHT22;59755;43.834;4.364;2023-07-02T06:22:48;23.00;58.10
71879;DHT22;59755;43.834;4.364;2023-07-02T06:25:14;23.10;57.10
71879;DHT22;59755;43.834;4.364;2023-07-02T06:27:40;23.10;57.00
71879;DHT22;59755;43.834;4.364;2023-07-02T06:30:05;23.10;57.00
71879;DHT22;59755;43.834;4.364;2023-07-02T06:32:31;23.10;57.10
71879;DHT22;59755;43.834;4.364;2023-07-02T06:34:57;23.20;57.20
71879;DHT22;59755;43.834;4.364;2023-07-02T06:37:23;23.30;57.10
71879;DHT22;59755;43.834;4.364;2023-07-02T06:39:48;23.30;56.40
71879;DHT22;59755;43.834;4.364;2023-07-02T06:42:14;23.30;56.50
71879;DHT22;59755;43.834;4.364;2023-07-02T06:44:40;23.40;56.60
71879;DHT22;59755;43.834;4.364;2023-07-02T06:47:06;23.40;56.60
71879;DHT22;59755;43.834;4.364;2023-07-02T06:49:31;23.40;56.60
71879;DHT22;59755;43.834;4.364;2023-07-02T06:51:57;23.50;56.40
71879;DHT22;59755;43.834;4.364;2023-07-02T06:54:23;23.50;56.70
71879;DHT22;59755;43.834;4.364;2023-07-02T06:56:48;23.60;56.40
71879;DHT22;59755;43.834;4.364;2023-07-02T06:59:18;23.60;56.70
71879;DHT22;59755;43.834;4.364;2023-07-02T07:01:43;23.60;56.70
71879;DHT22;59755;43.834;4.364;2023-07-02T07:04:09;23.70;56.80
71879;DHT22;59755;43.834;4.364;2023-07-02T07:06:35;23.80;56.40
71879;DHT22;59755;43.834;4.364;2023-07-02T07:09:00;23.80;55.70
71879;DHT22;59755;43.834;4.364;2023-07-02T07:11:26;23.90;55.70
71879;DHT22;59755;43.834;4.364;2023-07-02T07:13:51;24.00;55.60
71879;DHT22;59755;43.834;4.364;2023-07-02T07:16:17;24.00;55.10
71879;DHT22;59755;43.834;4.364;2023-07-02T07:18:43;24.10;55.00
71879;DHT22;59755;43.834;4.364;2023-07-02T07:21:09;24.20;54.70
71879;DHT22;59755;43.834;4.364;2023-07-02T07:23:34;24.20;54.50
71879;DHT22;59755;43.834;4.364;2023-07-02T07:26:00;24.30;54.40
71879;DHT22;59755;43.834;4.364;2023-07-02T07:28:26;24.30;54.20
71879;DHT22;59755;43.834;4.364;2023-07-02T07:30:51;24.40;53.50
71879;DHT22;59755;43.834;4.364;2023-07-02T07:33:17;24.40;53.10
71879;DHT22;59755;43.834;4.364;2023-07-02T07:35:43;24.50;52.80
71879;DHT22;59755;43.834;4.364;2023-07-02T07:38:08;24.50;52.80
71879;DHT22;59755;43.834;4.364;2023-07-02T07:40:34;24.60;53.20
71879;DHT22;59755;43.834;4.364;2023-07-02T07:42:59;24.60;52.60
71879;DHT22;59755;43.834;4.364;2023-07-02T07:45:25;24.70;52.30
71879;DHT22;59755;43.834;4.364;2023-07-02T07:47:51;24.70;52.00
71879;DHT22;59755;43.834;4.364;2023-07-02T07:50:16;24.80;52.00
71879;DHT22;59755;43.834;4.364;2023-07-02T07:52:42;24.80;52.10
71879;DHT22;59755;43.834;4.364;2023-07-02T07:55:08;24.80;51.60
71879;DHT22;59755;43.834;4.364;2023-07-02T07:57:34;24.80;51.30
71879;DHT22;59755;43.834;4.364;2023-07-02T08:00:00;24.90;51.40
71879;DHT22;59755;43.834;4.364;2023-07-02T08:02:26;25.00;50.80
71879;DHT22;59755;43.834;4.364;2023-07-02T08:04:51;25.00;50.80
71879;DHT22;59755;43.834;4.364;2023-07-02T08:07:17;25.10;50.60
71879;DHT22;59755;43.834;4.364;2023-07-02T08:09:42;25.20;50.80
71879;DHT22;59755;43.834;4.364;2023-07-02T08:12:08;25.40;50.20
71879;DHT22;59755;43.834;4.364;2023-07-02T08:14:34;25.40;50.00
71879;DHT22;59755;43.834;4.364;2023-07-02T08:17:02;25.40;49.80
71879;DHT22;59755;43.834;4.364;2023-07-02T08:19:28;25.40;49.90
71879;DHT22;59755;43.834;4.364;2023-07-02T08:21:53;25.40;49.40
71879;DHT22;59755;43.834;4.364;2023-07-02T08:24:19;25.40;49.80
71879;DHT22;59755;43.834;4.364;2023-07-02T08:26:44;25.50;49.90
71879;DHT22;59755;43.834;4.364;2023-07-02T08:29:10;25.50;49.40
71879;DHT22;59755;43.834;4.364;2023-07-02T08:31:36;25.60;49.40
71879;DHT22;59755;43.834;4.364;2023-07-02T08:34:02;25.60;49.60
71879;DHT22;59755;43.834;4.364;2023-07-02T08:36:28;25.60;49.50
71879;DHT22;59755;43.834;4.364;2023-07-02T08:38:53;25.70;49.30
71879;DHT22;59755;43.834;4.364;2023-07-02T08:41:20;25.70;49.60
71879;DHT22;59755;43.834;4.364;2023-07-02T08:43:46;25.70;49.20
71879;DHT22;59755;43.834;4.364;2023-07-02T08:46:14;25.80;49.10
71879;DHT22;59755;43.834;4.364;2023-07-02T08:48:40;25.70;49.70
71879;DHT22;59755;43.834;4.364;2023-07-02T08:51:06;25.70;49.50
71879;DHT22;59755;43.834;4.364;2023-07-02T08:53:31;25.70;49.40
71879;DHT22;59755;43.834;4.364;2023-07-02T08:56:02;25.70;49.80
71879;DHT22;59755;43.834;4.364;2023-07-02T08:58:28;25.90;49.20
71879;DHT22;59755;43.834;4.364;2023-07-02T09:01:03;25.90;49.00
71879;DHT22;59755;43.834;4.364;2023-07-02T09:03:29;26.10;48.90
71879;DHT22;59755;43.834;4.364;2023-07-02T09:05:55;26.20;48.80
71879;DHT22;59755;43.834;4.364;2023-07-02T09:08:26;26.40;48.00
71879;DHT22;59755;43.834;4.364;2023-07-02T09:10:53;26.60;47.90
71879;DHT22;59755;43.834;4.364;2023-07-02T09:13:19;26.70;47.50
71879;DHT22;59755;43.834;4.364;2023-07-02T09:15:44;26.70;47.40
71879;DHT22;59755;43.834;4.364;2023-07-02T09:18:20;26.60;47.60
71879;DHT22;59755;43.834;4.364;2023-07-02T09:20:46;26.50;47.90
71879;DHT22;59755;43.834;4.364;2023-07-02T09:23:12;26.60;47.60
71879;DHT22;59755;43.834;4.364;2023-07-02T09:25:38;26.60;46.70
71879;DHT22;59755;43.834;4.364;2023-07-02T09:28:13;26.80;46.30
71879;DHT22;59755;43.834;4.364;2023-07-02T09:30:48;26.90;46.20
71879;DHT22;59755;43.834;4.364;2023-07-02T09:33:15;26.70;45.70
71879;DHT22;59755;43.834;4.364;2023-07-02T09:35:40;26.60;45.00
71879;DHT22;59755;43.834;4.364;2023-07-02T09:38:06;26.60;45.70
71879;DHT22;59755;43.834;4.364;2023-07-02T09:40:32;26.70;45.70
71879;DHT22;59755;43.834;4.364;2023-07-02T09:42:58;26.80;45.30
71879;DHT22;59755;43.834;4.364;2023-07-02T09:45:24;26.90;45.50
71879;DHT22;59755;43.834;4.364;2023-07-02T09:47:50;27.10;45.10
71879;DHT22;59755;43.834;4.364;2023-07-02T09:50:17;27.10;45.10
71879;DHT22;59755;43.834;4.364;2023-07-02T09:52:44;27.20;44.60
71879;DHT22;59755;43.834;4.364;2023-07-02T09:55:11;27.30;44.10
71879;DHT22;59755;43.834;4.364;2023-07-02T09:57:37;27.30;44.40
71879;DHT22;59755;43.834;4.364;2023-07-02T10:00:03;27.40;44.10
71879;DHT22;59755;43.834;4.364;2023-07-02T10:02:30;27.50;44.20
71879;DHT22;59755;43.834;4.364;2023-07-02T10:04:55;27.90;44.10
71879;DHT22;59755;43.834;4.364;2023-07-02T10:07:28;28.00;42.90
71879;DHT22;59755;43.834;4.364;2023-07-02T10:09:54;28.30;42.30
71879;DHT22;59755;43.834;4.364;2023-07-02T10:12:21;28.80;41.30
71879;DHT22;59755;43.834;4.364;2023-07-02T10:14:47;28.80;41.40
71879;DHT22;59755;43.834;4.364;2023-07-02T10:17:30;28.70;41.80
71879;DHT22;59755;43.834;4.364;2023-07-02T10:19:58;28.60;41.90
71879;DHT22;59755;43.834;4.364;2023-07-02T10:22:23;28.60;42.10
71879;DHT22;59755;43.834;4.364;2023-07-02T10:24:58;28.70;42.00
71879;DHT22;59755;43.834;4.364;2023-07-02T10:27:33;28.80;41.70
71879;DHT22;59755;43.834;4.364;2023-07-02T10:30:00;28.40;42.50
71879;DHT22;59755;43.834;4.364;2023-07-02T10:32:26;28.30;42.90
71879;DHT22;59755;43.834;4.364;2023-07-02T10:34:53;28.30;42.50
71879;DHT22;59755;43.834;4.364;2023-07-02T10:37:19;28.40;42.40
71879;DHT22;59755;43.834;4.364;2023-07-02T10:39:44;28.60;42.30
71879;DHT22;59755;43.834;4.364;2023-07-02T10:42:10;28.70;41.90
71879;DHT22;59755;43.834;4.364;2023-07-02T10:44:57;29.00;41.90
71879;DHT22;59755;43.834;4.364;2023-07-02T10:47:21;29.40;41.20
71879;DHT22;59755;43.834;4.364;2023-07-02T10:49:47;29.40;41.10
71879;DHT22;59755;43.834;4.364;2023-07-02T10:52:13;29.60;40.00
71879;DHT22;59755;43.834;4.364;2023-07-02T10:54:45;30.00;39.80
71879;DHT22;59755;43.834;4.364;2023-07-02T10:57:12;30.30;39.60
71879;DHT22;59755;43.834;4.364;2023-07-02T10:59:38;30.80;39.00
71879;DHT22;59755;43.834;4.364;2023-07-02T11:02:04;31.10;38.00
71879;DHT22;59755;43.834;4.364;2023-07-02T11:04:30;31.00;38.50
71879;DHT22;59755;43.834;4.364;2023-07-02T11:06:56;31.40;37.50
71879;DHT22;59755;43.834;4.364;2023-07-02T11:09:21;31.60;36.90
71879;DHT22;59755;43.834;4.364;2023-07-02T11:11:52;33.30;34.70
71879;DHT22;59755;43.834;4.364;2023-07-02T11:14:31;34.10;33.70
71879;DHT22;59755;43.834;4.364;2023-07-02T11:16:57;33.80;34.00
71879;DHT22;59755;43.834;4.364;2023-07-02T11:19:23;35.10;32.60
71879;DHT22;59755;43.834;4.364;2023-07-02T11:21:56;36.20;30.60
71879;DHT22;59755;43.834;4.364;2023-07-02T11:24:35;35.20;31.80
71879;DHT22;59755;43.834;4.364;2023-07-02T11:27:02;35.00;32.10
71879;DHT22;59755;43.834;4.364;2023-07-02T11:29:28;34.40;32.90
71879;DHT22;59755;43.834;4.364;2023-07-02T11:31:54;35.20;32.10
71879;DHT22;59755;43.834;4.364;2023-07-02T11:34:21;35.10;32.00
71879;DHT22;59755;43.834;4.364;2023-07-02T11:36:47;35.70;31.20
71879;DHT22;59755;43.834;4.364;2023-07-02T11:39:13;36.20;30.50
71879;DHT22;59755;43.834;4.364;2023-07-02T11:41:41;36.30;30.40
71879;DHT22;59755;43.834;4.364;2023-07-02T11:44:07;35.70;31.20
71879;DHT22;59755;43.834;4.364;2023-07-02T11:46:33;34.90;31.90
71879;DHT22;59755;43.834;4.364;2023-07-02T11:48:59;34.40;33.00
71879;DHT22;59755;43.834;4.364;2023-07-02T11:51:25;36.50;30.80
71879;DHT22;59755;43.834;4.364;2023-07-02T11:53:51;36.40;30.50
71879;DHT22;59755;43.834;4.364;2023-07-02T11:56:16;35.60;31.30
71879;DHT22;59755;43.834;4.364;2023-07-02T12:01:08;39.00;27.60
71879;DHT22;59755;43.834;4.364;2023-07-02T12:03:34;39.70;27.00
71879;DHT22;59755;43.834;4.364;2023-07-02T12:05:59;40.10;26.70
71879;DHT22;59755;43.834;4.364;2023-07-02T12:08:25;40.30;26.50
71879;DHT22;59755;43.834;4.364;2023-07-02T12:10:51;40.90;26.20
71879;DHT22;59755;43.834;4.364;2023-07-02T12:13:16;41.10;25.90
71879;DHT22;59755;43.834;4.364;2023-07-02T12:15:42;39.70;27.10
71879;DHT22;59755;43.834;4.364;2023-07-02T12:18:08;39.90;27.20
71879;DHT22;59755;43.834;4.364;2023-07-02T12:20:34;40.20;26.40
71879;DHT22;59755;43.834;4.364;2023-07-02T12:22:59;40.80;26.00
71879;DHT22;59755;43.834;4.364;2023-07-02T12:25:25;40.60;25.70
71879;DHT22;59755;43.834;4.364;2023-07-02T12:27:50;40.60;25.20
71879;DHT22;59755;43.834;4.364;2023-07-02T12:30:16;40.50;25.60
71879;DHT22;59755;43.834;4.364;2023-07-02T12:32:42;41.30;25.00
71879;DHT22;59755;43.834;4.364;2023-07-02T12:35:09;41.50;24.60
71879;DHT22;59755;43.834;4.364;2023-07-02T12:37:34;41.30;25.10
71879;DHT22;59755;43.834;4.364;2023-07-02T12:40:00;41.30;25.00
71879;DHT22;59755;43.834;4.364;2023-07-02T12:42:26;41.20;25.20
71879;DHT22;59755;43.834;4.364;2023-07-02T12:44:52;41.10;25.00
71879;DHT22;59755;43.834;4.364;2023-07-02T12:47:17;40.60;25.30
71879;DHT22;59755;43.834;4.364;2023-07-02T12:49:43;40.90;25.30
71879;DHT22;59755;43.834;4.364;2023-07-02T12:52:08;40.60;25.30
71879;DHT22;59755;43.834;4.364;2023-07-02T12:54:34;40.90;24.90
71879;DHT22;59755;43.834;4.364;2023-07-02T12:57:00;41.50;24.90
71879;DHT22;59755;43.834;4.364;2023-07-02T12:59:25;41.80;24.50
71879;DHT22;59755;43.834;4.364;2023-07-02T13:06:42;42.30;23.70
71879;DHT22;59755;43.834;4.364;2023-07-02T13:09:10;43.10;23.20
71879;DHT22;59755;43.834;4.364;2023-07-02T13:11:36;43.40;23.20
71879;DHT22;59755;43.834;4.364;2023-07-02T13:14:03;42.50;23.60
71879;DHT22;59755;43.834;4.364;2023-07-02T13:16:29;42.50;23.40
71879;DHT22;59755;43.834;4.364;2023-07-02T13:18:55;42.30;23.80
71879;DHT22;59755;43.834;4.364;2023-07-02T13:21:22;42.80;23.70
71879;DHT22;59755;43.834;4.364;2023-07-02T13:23:47;42.40;23.80
71879;DHT22;59755;43.834;4.364;2023-07-02T13:26:13;42.70;23.50
71879;DHT22;59755;43.834;4.364;2023-07-02T13:28:39;42.10;23.90
71879;DHT22;59755;43.834;4.364;2023-07-02T13:31:04;42.40;23.60
71879;DHT22;59755;43.834;4.364;2023-07-02T13:33:30;42.20;23.80
71879;DHT22;59755;43.834;4.364;2023-07-02T13:35:56;42.50;23.60
71879;DHT22;59755;43.834;4.364;2023-07-02T13:38:22;42.40;23.90
71879;DHT22;59755;43.834;4.364;2023-07-02T13:40:47;42.80;23.50
71879;DHT22;59755;43.834;4.364;2023-07-02T13:43:13;43.10;23.40
71879;DHT22;59755;43.834;4.364;2023-07-02T13:45:39;42.60;23.70
71879;DHT22;59755;43.834;4.364;2023-07-02T13:48:05;42.30;24.00
71879;DHT22;59755;43.834;4.364;2023-07-02T13:50:30;41.60;24.30
71879;DHT22;59755;43.834;4.364;2023-07-02T13:52:56;42.30;23.80
71879;DHT22;59755;43.834;4.364;2023-07-02T13:55:22;42.90;23.30
71879;DHT22;59755;43.834;4.364;2023-07-02T13:57:53;42.70;23.50
71879;DHT22;59755;43.834;4.364;2023-07-02T14:00:20;42.90;23.30
71879;DHT22;59755;43.834;4.364;2023-07-02T14:02:45;42.70;23.50
71879;DHT22;59755;43.834;4.364;2023-07-02T14:05:11;42.90;23.70
71879;DHT22;59755;43.834;4.364;2023-07-02T14:07:37;42.90;23.60
71879;DHT22;59755;43.834;4.364;2023-07-02T14:10:02;42.70;23.60
71879;DHT22;59755;43.834;4.364;2023-07-02T14:12:28;42.70;23.70
71879;DHT22;59755;43.834;4.364;2023-07-02T14:14:54;41.70;24.70
71879;DHT22;59755;43.834;4.364;2023-07-02T14:19:45;41.00;25.50
71879;DHT22;59755;43.834;4.364;2023-07-02T14:22:11;40.00;26.30
71879;DHT22;59755;43.834;4.364;2023-07-02T14:24:36;38.80;27.40
71879;DHT22;59755;43.834;4.364;2023-07-02T14:27:02;37.80;28.50
71879;DHT22;59755;43.834;4.364;2023-07-02T14:29:27;37.50;28.70
71879;DHT22;59755;43.834;4.364;2023-07-02T14:31:53;36.70;28.90
71879;DHT22;59755;43.834;4.364;2023-07-02T14:36:45;35.90;30.40
71879;DHT22;59755;43.834;4.364;2023-07-02T14:39:11;34.70;31.40
71879;DHT22;59755;43.834;4.364;2023-07-02T14:41:36;34.40;31.80
71879;DHT22;59755;43.834;4.364;2023-07-02T14:44:02;34.00;32.00
71879;DHT22;59755;43.834;4.364;2023-07-02T14:46:28;33.60;32.50
71879;DHT22;59755;43.834;4.364;2023-07-02T14:48:53;33.40;32.70
71879;DHT22;59755;43.834;4.364;2023-07-02T14:51:19;33.20;33.00
71879;DHT22;59755;43.834;4.364;2023-07-02T14:53:45;33.20;33.30
71879;DHT22;59755;43.834;4.364;2023-07-02T14:56:10;33.10;33.50
71879;DHT22;59755;43.834;4.364;2023-07-02T14:58:36;33.20;33.50
71879;DHT22;59755;43.834;4.364;2023-07-02T15:01:02;33.10;34.00
71879;DHT22;59755;43.834;4.364;2023-07-02T15:03:27;33.10;34.00
71879;DHT22;59755;43.834;4.364;2023-07-02T15:05:53;33.10;33.70
71879;DHT22;59755;43.834;4.364;2023-07-02T15:08:19;33.20;33.80
71879;DHT22;59755;43.834;4.364;2023-07-02T15:10:47;33.20;34.20
71879;DHT22;59755;43.834;4.364;2023-07-02T15:13:12;33.10;34.30
71879;DHT22;59755;43.834;4.364;2023-07-02T15:15:38;33.10;33.70
71879;DHT22;59755;43.834;4.364;2023-07-02T15:18:07;32.90;34.10
71879;DHT22;59755;43.834;4.364;2023-07-02T15:20:33;32.90;34.80
71879;DHT22;59755;43.834;4.364;2023-07-02T15:22:58;32.70;35.00
71879;DHT22;59755;43.834;4.364;2023-07-02T15:25:24;32.60;35.10
71879;DHT22;59755;43.834;4.364;2023-07-02T15:27:50;32.60;35.50
71879;DHT22;59755;43.834;4.364;2023-07-02T15:30:15;32.60;35.90
71879;DHT22;59755;43.834;4.364;2023-07-02T15:32:41;32.60;35.90
71879;DHT22;59755;43.834;4.364;2023-07-02T15:35:07;32.50;36.40